createdAt,value
2022-11-03T00:00:53.881Z,6.64
2022-11-03T00:01:53.995Z,6.63
2022-11-03T00:02:53.809Z,6.73
2022-11-03T00:03:53.664Z,6.69
2022-11-03T00:04:53.564Z,6.68
2022-11-03T00:05:53.519Z,6.58
2022-11-03T00:06:53.452Z,6.53
2022-11-03T00:07:53.426Z,6.54
2022-11-03T00:08:53.459Z,6.57
2022-11-03T00:09:53.232Z,6.61
2022-11-03T00:10:53.245Z,6.64
2022-11-03T00:11:53.103Z,6.60
2022-11-03T00:12:53.083Z,6.63
2022-11-03T00:13:53.117Z,6.63
2022-11-03T00:14:52.892Z,6.69
2022-11-03T00:15:52.839Z,6.63
2022-11-03T00:16:52.905Z,6.58
2022-11-03T00:17:52.694Z,6.46
2022-11-03T00:18:52.666Z,6.50
2022-11-03T00:19:52.711Z,6.39
2022-11-03T00:20:52.549Z,6.39
2022-11-03T00:21:52.425Z,6.36
2022-11-03T00:22:52.422Z,6.32
2022-11-03T00:23:52.310Z,6.32
2022-11-03T00:24:52.366Z,6.36
2022-11-03T00:25:52.186Z,6.27
2022-11-03T00:26:52.142Z,6.32
2022-11-03T00:27:52.119Z,6.33
2022-11-03T00:28:52.068Z,6.30
2022-11-03T00:29:51.912Z,6.39
2022-11-03T00:30:51.852Z,6.39
2022-11-03T00:31:51.854Z,6.50
2022-11-03T00:32:51.732Z,6.38
2022-11-03T00:33:51.661Z,6.32
2022-11-03T00:34:51.565Z,6.27
2022-11-03T00:35:51.722Z,6.17
2022-11-03T00:36:51.504Z,6.24
2022-11-03T00:37:51.532Z,6.20
2022-11-03T00:38:51.416Z,6.11
2022-11-03T00:39:51.270Z,6.25
2022-11-03T00:40:51.319Z,6.21
2022-11-03T00:41:51.181Z,6.17
2022-11-03T00:42:51.049Z,6.25
2022-11-03T00:43:51.056Z,6.19
2022-11-03T00:44:51.022Z,6.21
2022-11-03T00:45:50.830Z,6.25
2022-11-03T00:46:50.845Z,6.11
2022-11-03T00:47:50.835Z,6.06
2022-11-03T00:48:50.701Z,6.06
2022-11-03T00:49:50.564Z,6.06
2022-11-03T00:50:50.526Z,6.16
2022-11-03T00:51:50.440Z,6.13
2022-11-03T00:52:50.429Z,6.10
2022-11-03T00:53:50.305Z,6.19
2022-11-03T00:54:54.327Z,6.24
2022-11-03T00:55:50.176Z,6.20
2022-11-03T00:56:50.095Z,6.27
2022-11-03T00:57:50.069Z,6.21
2022-11-03T00:58:49.989Z,6.08
2022-11-03T00:59:49.985Z,6.06
2022-11-03T01:00:50.027Z,6.06
2022-11-03T01:01:49.976Z,6.17
2022-11-03T01:02:49.718Z,6.30
2022-11-03T01:03:49.800Z,6.19
2022-11-03T01:04:49.657Z,6.25
2022-11-03T01:05:49.486Z,6.20
2022-11-03T01:06:49.545Z,6.16
2022-11-03T01:07:49.409Z,6.14
2022-11-03T01:08:49.404Z,6.24
2022-11-03T01:09:49.237Z,6.06
2022-11-03T01:10:49.175Z,6.06
2022-11-03T01:11:49.129Z,6.10
2022-11-03T01:12:49.072Z,6.10
2022-11-03T01:13:49.204Z,6.01
2022-11-03T01:14:48.925Z,5.98
2022-11-03T01:15:48.840Z,5.96
2022-11-03T01:16:48.761Z,5.85
2022-11-03T01:17:48.745Z,5.95
2022-11-03T01:18:48.621Z,6.06
2022-11-03T01:19:48.555Z,5.99
2022-11-03T01:20:48.644Z,5.96
2022-11-03T01:21:48.506Z,5.87
2022-11-03T01:22:48.360Z,5.88
2022-11-03T01:23:48.285Z,5.87
2022-11-03T01:24:48.366Z,5.78
2022-11-03T01:25:48.174Z,5.75
2022-11-03T01:26:48.303Z,5.78
2022-11-03T01:27:48.021Z,5.75
2022-11-03T01:28:48.070Z,5.75
2022-11-03T01:29:47.900Z,5.81
2022-11-03T01:30:47.822Z,5.75
2022-11-03T01:31:47.814Z,5.80
2022-11-03T01:32:47.701Z,5.81
2022-11-03T01:33:47.637Z,5.74
2022-11-03T01:34:47.650Z,5.90
2022-11-03T01:35:47.536Z,5.90
2022-11-03T01:36:47.436Z,5.83
2022-11-03T01:37:47.483Z,5.80
2022-11-03T01:38:47.310Z,5.66
2022-11-03T01:39:47.285Z,5.77
2022-11-03T01:40:47.189Z,5.70
2022-11-03T01:41:47.123Z,5.77
2022-11-03T01:42:47.033Z,5.77
2022-11-03T01:43:46.952Z,5.75
2022-11-03T01:44:46.914Z,5.75
2022-11-03T01:45:46.842Z,5.90
2022-11-03T01:46:46.758Z,5.93
2022-11-03T01:47:46.738Z,5.90
2022-11-03T01:48:46.604Z,5.90
2022-11-03T01:49:46.655Z,5.92
2022-11-03T01:50:46.502Z,5.92
2022-11-03T01:51:46.467Z,5.93
2022-11-03T01:52:46.397Z,5.98
2022-11-03T01:53:46.316Z,5.99
2022-11-03T01:54:46.252Z,6.06
2022-11-03T01:55:46.181Z,5.98
2022-11-03T01:56:46.114Z,6.06
2022-11-03T01:57:46.035Z,6.17
2022-11-03T01:58:45.972Z,6.25
2022-11-03T01:59:45.960Z,6.35
2022-11-03T02:00:45.896Z,6.39
2022-11-03T02:01:45.903Z,6.35
2022-11-03T02:02:45.737Z,6.51
2022-11-03T02:03:45.607Z,6.50
2022-11-03T02:04:45.562Z,6.53
2022-11-03T02:05:45.509Z,6.60
2022-11-03T02:06:45.421Z,6.63
2022-11-03T02:07:45.351Z,6.60
2022-11-03T02:08:45.267Z,6.55
2022-11-03T02:09:45.251Z,6.58
2022-11-03T02:10:45.148Z,6.58
2022-11-03T02:11:45.099Z,6.76
2022-11-03T02:12:45.030Z,6.90
2022-11-03T02:13:44.973Z,6.97
2022-11-03T02:14:44.959Z,7.04
2022-11-03T02:15:44.916Z,7.21
2022-11-03T02:16:47.827Z,7.21
2022-11-03T02:17:44.705Z,7.21
2022-11-03T02:18:44.625Z,7.27
2022-11-03T02:19:44.553Z,7.30
2022-11-03T02:20:44.534Z,7.33
2022-11-03T02:21:44.633Z,7.29
2022-11-03T02:22:44.367Z,7.32
2022-11-03T02:23:44.333Z,7.44
2022-11-03T02:24:44.228Z,7.34
2022-11-03T02:25:44.234Z,7.39
2022-11-03T02:26:44.108Z,7.44
2022-11-03T02:27:44.161Z,7.50
2022-11-03T02:28:44.007Z,7.51
2022-11-03T02:29:43.920Z,7.58
2022-11-03T02:30:43.912Z,7.54
2022-11-03T02:31:43.884Z,7.73
2022-11-03T02:32:43.990Z,7.82
2022-11-03T02:33:43.674Z,7.85
2022-11-03T02:34:43.651Z,7.91
2022-11-03T02:35:43.493Z,7.84
2022-11-03T02:36:43.410Z,7.95
2022-11-03T02:37:43.338Z,7.92
2022-11-03T02:38:43.320Z,8.03
2022-11-03T02:39:43.232Z,8.03
2022-11-03T02:40:43.231Z,7.96
2022-11-03T02:41:43.184Z,8.03
2022-11-03T02:42:43.020Z,8.12
2022-11-03T02:43:42.988Z,8.03
2022-11-03T02:44:42.857Z,7.96
2022-11-03T02:45:42.857Z,7.99
2022-11-03T02:46:42.756Z,8.03
2022-11-03T02:47:42.662Z,7.91
2022-11-03T02:48:42.592Z,7.89
2022-11-03T02:49:42.588Z,7.86
2022-11-03T02:50:42.600Z,7.91
2022-11-03T02:51:42.461Z,7.86
2022-11-03T02:52:42.328Z,7.94
2022-11-03T02:53:42.374Z,8.03
2022-11-03T02:54:42.261Z,8.03
2022-11-03T02:55:42.137Z,7.99
2022-11-03T02:56:42.303Z,8.02
2022-11-03T02:57:41.996Z,7.96
2022-11-03T02:58:42.177Z,8.03
2022-11-03T02:59:41.851Z,7.99
2022-11-03T03:00:41.853Z,8.00
2022-11-03T03:01:41.871Z,8.09
2022-11-03T03:02:41.797Z,8.07
2022-11-03T03:03:41.597Z,8.06
2022-11-03T03:04:41.577Z,8.02
2022-11-03T03:05:41.484Z,7.95
2022-11-03T03:06:41.437Z,7.96
2022-11-03T03:07:41.341Z,7.99
2022-11-03T03:08:41.266Z,7.91
2022-11-03T03:09:41.210Z,7.88
2022-11-03T03:10:41.176Z,7.91
2022-11-03T03:11:41.123Z,7.91
2022-11-03T03:12:41.010Z,7.89
2022-11-03T03:13:40.994Z,7.85
2022-11-03T03:14:40.861Z,7.99
2022-11-03T03:15:40.806Z,7.99
2022-11-03T03:16:40.733Z,8.02
2022-11-03T03:17:40.669Z,7.99
2022-11-03T03:18:40.666Z,7.99
2022-11-03T03:19:40.544Z,8.03
2022-11-03T03:20:40.463Z,7.99
2022-11-03T03:21:40.434Z,8.03
2022-11-03T03:22:40.502Z,7.99
2022-11-03T03:23:40.284Z,8.02
2022-11-03T03:24:40.261Z,8.00
2022-11-03T03:25:40.157Z,7.88
2022-11-03T03:26:40.082Z,7.95
2022-11-03T03:27:40.152Z,7.89
2022-11-03T03:28:39.973Z,7.94
2022-11-03T03:29:39.913Z,7.92
2022-11-03T03:30:39.788Z,7.94
2022-11-03T03:31:39.727Z,7.96
2022-11-03T03:32:39.770Z,7.81
2022-11-03T03:33:41.992Z,7.85
2022-11-03T03:34:39.689Z,7.99
2022-11-03T03:35:39.469Z,7.92
2022-11-03T03:36:39.434Z,7.91
2022-11-03T03:37:39.338Z,7.91
2022-11-03T03:38:39.271Z,7.89
2022-11-03T03:39:39.253Z,7.82
2022-11-03T03:40:39.124Z,7.86
2022-11-03T03:41:39.138Z,7.82
2022-11-03T03:42:39.034Z,7.81
2022-11-03T03:43:39.044Z,7.79
2022-11-03T03:44:38.859Z,7.79
2022-11-03T03:45:38.796Z,7.81
2022-11-03T03:46:38.728Z,7.79
2022-11-03T03:47:38.733Z,7.71
2022-11-03T03:48:38.706Z,7.73
2022-11-03T03:49:38.562Z,7.86
2022-11-03T03:50:38.477Z,7.70
2022-11-03T03:51:38.542Z,7.81
2022-11-03T03:52:38.396Z,7.85
2022-11-03T03:53:38.252Z,7.84
2022-11-03T03:54:38.312Z,7.85
2022-11-03T03:55:38.298Z,7.84
2022-11-03T03:56:38.097Z,7.82
2022-11-03T03:57:38.037Z,7.81
2022-11-03T03:58:37.947Z,7.81
2022-11-03T03:59:37.932Z,7.81
2022-11-03T04:00:37.784Z,7.81
2022-11-03T04:01:37.784Z,7.70
2022-11-03T04:02:37.741Z,7.79
2022-11-03T04:03:37.659Z,7.70
2022-11-03T04:04:37.523Z,7.67
2022-11-03T04:05:37.474Z,7.58
2022-11-03T04:06:37.568Z,7.69
2022-11-03T04:07:42.468Z,7.71
2022-11-03T04:08:37.331Z,7.57
2022-11-03T04:09:37.209Z,7.66
2022-11-03T04:10:37.205Z,7.62
2022-11-03T04:11:37.084Z,7.60
2022-11-03T04:12:37.009Z,7.50
2022-11-03T04:13:36.937Z,7.52
2022-11-03T04:14:36.857Z,7.51
2022-11-03T04:15:36.793Z,7.55
2022-11-03T04:16:36.776Z,7.47
2022-11-03T04:17:36.794Z,7.48
2022-11-03T04:18:36.591Z,7.58
2022-11-03T04:19:36.580Z,7.52
2022-11-03T04:20:36.444Z,7.58
2022-11-03T04:21:36.418Z,7.62
2022-11-03T04:22:36.368Z,7.58
2022-11-03T04:23:36.266Z,7.58
2022-11-03T04:24:36.218Z,7.66
2022-11-03T04:25:36.138Z,7.62
2022-11-03T04:26:36.068Z,7.67
2022-11-03T04:27:36.025Z,7.67
2022-11-03T04:28:35.946Z,7.63
2022-11-03T04:29:35.865Z,7.58
2022-11-03T04:30:35.789Z,7.62
2022-11-03T04:31:35.824Z,7.62
2022-11-03T04:32:35.669Z,7.63
2022-11-03T04:33:35.592Z,7.67
2022-11-03T04:34:35.557Z,7.74
2022-11-03T04:35:35.480Z,7.71
2022-11-03T04:36:35.468Z,7.66
2022-11-03T04:37:35.411Z,7.62
2022-11-03T04:38:35.318Z,7.62
2022-11-03T04:39:35.251Z,7.62
2022-11-03T04:40:35.123Z,7.63
2022-11-03T04:41:35.059Z,7.66
2022-11-03T04:42:35.117Z,7.67
2022-11-03T04:43:35.006Z,7.63
2022-11-03T04:44:34.855Z,7.52
2022-11-03T04:45:34.812Z,7.63
2022-11-03T04:46:34.748Z,7.50
2022-11-03T04:47:34.664Z,7.41
2022-11-03T04:48:34.625Z,7.44
2022-11-03T04:49:34.607Z,7.58
2022-11-03T04:50:34.537Z,7.51
2022-11-03T04:51:34.412Z,7.44
2022-11-03T04:52:34.334Z,7.33
2022-11-03T04:53:34.270Z,7.33
2022-11-03T04:54:34.177Z,7.30
2022-11-03T04:55:34.127Z,7.33
2022-11-03T04:56:34.056Z,7.34
2022-11-03T04:57:34.045Z,7.41
2022-11-03T04:58:33.937Z,7.45
2022-11-03T04:59:33.931Z,7.50
2022-11-03T05:00:33.818Z,7.45
2022-11-03T05:01:33.913Z,7.60
2022-11-03T05:02:33.672Z,7.44
2022-11-03T05:03:33.590Z,7.44
2022-11-03T05:04:33.531Z,7.47
2022-11-03T05:05:33.469Z,7.54
2022-11-03T05:06:33.424Z,7.55
2022-11-03T05:07:33.344Z,7.69
2022-11-03T05:08:33.240Z,7.66
2022-11-03T05:09:33.189Z,7.71
2022-11-03T05:10:33.135Z,7.71
2022-11-03T05:11:33.065Z,7.81
2022-11-03T05:12:32.982Z,7.76
2022-11-03T05:13:32.922Z,7.71
2022-11-03T05:14:32.844Z,7.71
2022-11-03T05:15:32.814Z,7.71
2022-11-03T05:16:32.779Z,7.73
2022-11-03T05:17:32.673Z,7.81
2022-11-03T05:18:32.627Z,7.82
2022-11-03T05:19:32.522Z,7.84
2022-11-03T05:20:36.002Z,7.84
2022-11-03T05:21:32.473Z,7.89
2022-11-03T05:22:32.310Z,7.88
2022-11-03T05:23:32.257Z,7.88
2022-11-03T05:24:32.180Z,7.91
2022-11-03T05:25:32.124Z,7.88
2022-11-03T05:26:32.060Z,7.92
2022-11-03T05:27:32.023Z,7.99
2022-11-03T05:28:31.930Z,8.02
2022-11-03T05:29:31.888Z,8.02
2022-11-03T05:30:31.788Z,8.02
2022-11-03T05:31:31.724Z,7.99
2022-11-03T05:32:31.652Z,7.99
2022-11-03T05:33:31.568Z,7.94
2022-11-03T05:34:31.614Z,8.03
2022-11-03T05:35:31.452Z,7.99
2022-11-03T05:36:31.410Z,8.06
2022-11-03T05:37:31.314Z,7.99
2022-11-03T05:38:31.289Z,8.03
2022-11-03T05:39:31.213Z,8.12
2022-11-03T05:40:31.143Z,8.20
2022-11-03T05:41:31.080Z,8.07
2022-11-03T05:42:30.992Z,8.09
2022-11-03T05:43:30.958Z,8.12
2022-11-03T05:44:30.875Z,8.07
2022-11-03T05:45:30.788Z,8.12
2022-11-03T05:46:30.716Z,8.12
2022-11-03T05:47:30.644Z,8.04
2022-11-03T05:48:30.600Z,8.07
2022-11-03T05:49:30.621Z,8.09
2022-11-03T05:50:30.442Z,8.10
2022-11-03T05:51:30.404Z,8.04
2022-11-03T05:52:30.307Z,8.07
2022-11-03T05:53:30.234Z,8.09
2022-11-03T05:54:30.163Z,8.09
2022-11-03T05:55:30.105Z,8.06
2022-11-03T05:56:30.127Z,8.18
2022-11-03T05:57:29.969Z,8.17
2022-11-03T05:58:29.941Z,8.14
2022-11-03T05:59:29.892Z,8.09
2022-11-03T06:00:29.768Z,8.07
2022-11-03T06:01:29.842Z,8.09
2022-11-03T06:02:29.689Z,8.09
2022-11-03T06:03:29.634Z,8.12
2022-11-03T06:04:29.542Z,8.07
2022-11-03T06:05:29.443Z,8.18
2022-11-03T06:06:32.353Z,8.04
2022-11-03T06:07:29.437Z,8.10
2022-11-03T06:08:29.260Z,8.06
2022-11-03T06:09:29.177Z,8.14
2022-11-03T06:10:29.114Z,8.09
2022-11-03T06:11:29.031Z,8.06
2022-11-03T06:12:28.986Z,8.04
2022-11-03T06:13:28.929Z,8.02
2022-11-03T06:14:28.845Z,8.02
2022-11-03T06:15:28.788Z,7.91
2022-11-03T06:16:28.772Z,7.92
2022-11-03T06:17:28.633Z,7.94
2022-11-03T06:18:28.591Z,7.92
2022-11-03T06:19:28.512Z,7.85
2022-11-03T06:20:28.427Z,7.91
2022-11-03T06:21:28.371Z,7.91
2022-11-03T06:22:28.309Z,7.86
2022-11-03T06:23:28.274Z,7.81
2022-11-03T06:24:28.163Z,7.81
2022-11-03T06:25:28.143Z,7.86
2022-11-03T06:26:28.074Z,7.99
2022-11-03T06:27:27.981Z,7.86
2022-11-03T06:28:27.917Z,7.91
2022-11-03T06:29:27.863Z,7.81
2022-11-03T06:30:27.837Z,7.81
2022-11-03T06:31:27.709Z,7.79
2022-11-03T06:32:27.654Z,7.79
2022-11-03T06:33:27.562Z,7.85
2022-11-03T06:34:27.499Z,7.84
2022-11-03T06:35:27.430Z,7.81
2022-11-03T06:36:27.395Z,7.77
2022-11-03T06:37:27.334Z,7.92
2022-11-03T06:38:27.286Z,7.84
2022-11-03T06:39:27.197Z,7.94
2022-11-03T06:40:27.159Z,8.04
2022-11-03T06:41:27.169Z,8.00
2022-11-03T06:42:31.746Z,8.02
2022-11-03T06:43:26.907Z,7.96
2022-11-03T06:44:26.905Z,8.00
2022-11-03T06:45:26.761Z,8.00
2022-11-03T06:46:26.696Z,8.03
2022-11-03T06:47:26.678Z,8.00
2022-11-03T06:48:26.588Z,7.95
2022-11-03T06:49:26.537Z,8.03
2022-11-03T06:50:26.446Z,7.95
2022-11-03T06:51:26.412Z,7.96
2022-11-03T06:52:26.310Z,7.95
2022-11-03T06:53:26.237Z,7.94
2022-11-03T06:54:26.170Z,7.99
2022-11-03T06:55:26.101Z,7.99
2022-11-03T06:56:26.060Z,8.04
2022-11-03T06:57:26.060Z,7.95
2022-11-03T06:58:25.916Z,7.88
2022-11-03T06:59:25.864Z,7.81
2022-11-03T07:00:34.759Z,7.84
2022-11-03T07:01:25.766Z,7.86
2022-11-03T07:02:25.698Z,7.81
2022-11-03T07:03:25.577Z,7.86
2022-11-03T07:04:25.511Z,7.86
2022-11-03T07:05:25.423Z,7.89
2022-11-03T07:06:25.424Z,7.96
2022-11-03T07:07:25.282Z,7.95
2022-11-03T07:08:25.231Z,7.99
2022-11-03T07:09:25.155Z,7.96
2022-11-03T07:10:25.088Z,8.03
2022-11-03T07:11:25.040Z,8.07
2022-11-03T07:12:25.030Z,8.09
2022-11-03T07:13:25.007Z,8.10
2022-11-03T07:14:24.844Z,8.21
2022-11-03T07:15:24.751Z,8.25
2022-11-03T07:16:24.722Z,8.28
2022-11-03T07:17:24.653Z,8.39
2022-11-03T07:18:24.567Z,8.46
2022-11-03T07:19:24.495Z,8.49
2022-11-03T07:20:24.570Z,8.60
2022-11-03T07:21:24.343Z,8.70
2022-11-03T07:22:24.276Z,8.85
2022-11-03T07:23:24.229Z,8.86
2022-11-03T07:24:24.169Z,9.03
2022-11-03T07:25:24.110Z,9.32
2022-11-03T07:26:24.117Z,9.42
2022-11-03T07:27:24.013Z,9.58
2022-11-03T07:28:23.900Z,9.68
2022-11-03T07:29:23.818Z,9.81
2022-11-03T07:30:23.753Z,9.91
2022-11-03T07:31:23.684Z,10.11
2022-11-03T07:32:23.628Z,10.54
2022-11-03T07:33:23.561Z,10.83
2022-11-03T07:34:23.541Z,11.19
2022-11-03T07:35:23.473Z,11.53
2022-11-03T07:36:23.377Z,11.98
2022-11-03T07:37:23.320Z,12.22
2022-11-03T07:38:23.283Z,12.34
2022-11-03T07:39:23.200Z,12.55
2022-11-03T07:40:23.109Z,12.49
2022-11-03T07:41:23.049Z,12.85
2022-11-03T07:42:22.988Z,13.06
2022-11-03T07:43:22.924Z,13.39
2022-11-03T07:44:22.843Z,13.73
2022-11-03T07:45:22.837Z,14.09
2022-11-03T07:46:22.708Z,14.41
2022-11-03T07:47:22.661Z,14.86
2022-11-03T07:48:22.587Z,15.03
2022-11-03T07:49:22.531Z,15.49
2022-11-03T07:50:22.475Z,15.43
2022-11-03T07:51:22.406Z,15.22
2022-11-03T07:52:22.341Z,15.20
2022-11-03T07:53:26.011Z,15.03
2022-11-03T07:54:22.232Z,15.03
2022-11-03T07:55:22.295Z,14.59
2022-11-03T07:56:22.154Z,14.59
2022-11-03T07:57:22.027Z,14.69
2022-11-03T07:58:21.988Z,14.46
2022-11-03T07:59:21.948Z,14.48
2022-11-03T08:00:21.918Z,14.35
2022-11-03T08:01:22.031Z,13.66
2022-11-03T08:02:21.842Z,13.44
2022-11-03T08:03:21.679Z,13.06
2022-11-03T08:04:21.627Z,13.17
2022-11-03T08:05:21.766Z,13.16
2022-11-03T08:06:21.465Z,13.14
2022-11-03T08:07:21.411Z,13.19
2022-11-03T08:08:21.352Z,13.28
2022-11-03T08:09:21.334Z,13.35
2022-11-03T08:10:21.336Z,13.21
2022-11-03T08:11:23.289Z,12.96
2022-11-03T08:12:21.108Z,12.81
2022-11-03T08:13:21.070Z,12.63
2022-11-03T08:14:21.003Z,12.81
2022-11-03T08:15:20.919Z,12.85
2022-11-03T08:16:20.990Z,12.89
2022-11-03T08:17:20.817Z,13.03
2022-11-03T08:18:20.791Z,13.32
2022-11-03T08:19:20.683Z,13.46
2022-11-03T08:20:20.618Z,13.83
2022-11-03T08:21:20.571Z,14.26
2022-11-03T08:22:20.492Z,14.11
2022-11-03T08:23:25.721Z,13.96
2022-11-03T08:24:20.382Z,14.01
2022-11-03T08:25:20.305Z,13.54
2022-11-03T08:26:20.272Z,13.69
2022-11-03T08:27:20.209Z,13.79
2022-11-03T08:28:20.157Z,14.16
2022-11-03T08:29:20.058Z,14.42
2022-11-03T08:30:20.025Z,14.75
2022-11-03T08:31:19.992Z,14.80
2022-11-03T08:32:19.880Z,15.04
2022-11-03T08:33:19.859Z,15.11
2022-11-03T08:34:19.768Z,15.52
2022-11-03T08:35:19.713Z,15.28
2022-11-03T08:36:19.744Z,15.28
2022-11-03T08:37:19.622Z,15.58
2022-11-03T08:38:19.557Z,15.67
2022-11-03T08:39:19.591Z,15.76
2022-11-03T08:40:19.394Z,15.05
2022-11-03T08:41:19.338Z,14.60
2022-11-03T08:42:19.265Z,14.71
2022-11-03T08:43:19.231Z,14.90
2022-11-03T08:44:19.273Z,14.79
2022-11-03T08:45:19.137Z,14.34
2022-11-03T08:46:19.073Z,14.87
2022-11-03T08:47:18.979Z,14.87
2022-11-03T08:48:18.946Z,14.93
2022-11-03T08:49:18.852Z,14.75
2022-11-03T08:50:18.793Z,14.45
2022-11-03T08:51:18.795Z,14.93
2022-11-03T08:52:18.687Z,14.83
2022-11-03T08:53:18.619Z,14.80
2022-11-03T08:54:18.548Z,14.13
2022-11-03T08:55:18.480Z,14.08
2022-11-03T08:56:21.851Z,14.45
2022-11-03T08:57:18.464Z,14.74
2022-11-03T08:58:18.323Z,14.95
2022-11-03T08:59:18.288Z,15.46
2022-11-03T09:00:18.198Z,15.78
2022-11-03T09:01:18.188Z,15.68
2022-11-03T09:02:18.124Z,15.40
2022-11-03T09:03:18.063Z,15.20
2022-11-03T09:04:17.942Z,15.13
2022-11-03T09:05:17.909Z,14.94
2022-11-03T09:06:17.843Z,14.97
2022-11-03T09:07:17.982Z,14.54
2022-11-03T09:11:17.560Z,15.12
2022-11-03T09:12:17.491Z,15.28
2022-11-03T09:13:17.422Z,15.84
2022-11-03T09:14:17.357Z,16.42
2022-11-03T09:15:17.418Z,16.55
2022-11-03T09:16:24.388Z,16.66
2022-11-03T09:18:21.193Z,17.02
2022-11-03T09:19:21.116Z,16.78
2022-11-03T09:20:21.087Z,16.59
2022-11-03T09:21:20.992Z,16.04
2022-11-03T09:22:20.936Z,15.95
2022-11-03T09:23:20.877Z,16.66
2022-11-03T09:24:20.871Z,17.02
2022-11-03T09:25:20.760Z,17.00
2022-11-03T09:26:20.705Z,16.22
2022-11-03T09:27:20.650Z,16.07
2022-11-03T09:28:20.597Z,15.86
2022-11-03T09:29:20.516Z,15.55
2022-11-03T09:30:20.460Z,15.33
2022-11-03T09:31:20.412Z,15.59
2022-11-03T09:32:23.184Z,15.96
2022-11-03T09:33:20.278Z,15.76
2022-11-03T09:34:20.237Z,15.56
2022-11-03T09:35:20.177Z,15.46
2022-11-03T09:36:20.116Z,15.64
2022-11-03T09:37:20.075Z,15.19
2022-11-03T09:38:20.000Z,14.90
2022-11-03T09:39:19.936Z,15.05
2022-11-03T09:40:19.886Z,15.38
2022-11-03T09:41:27.879Z,15.35
2022-11-03T09:42:19.749Z,15.18
2022-11-03T09:43:19.712Z,15.51
2022-11-03T09:44:19.736Z,15.67
2022-11-03T09:45:19.591Z,15.58
2022-11-03T09:46:19.517Z,15.78
2022-11-03T09:47:19.452Z,16.08
2022-11-03T09:48:19.403Z,16.18
2022-11-03T09:49:19.335Z,16.50
2022-11-03T09:50:19.292Z,16.14
2022-11-03T09:51:19.210Z,16.04
2022-11-03T09:52:19.153Z,15.88
2022-11-03T09:53:19.099Z,15.91
2022-11-03T09:54:19.040Z,16.41
2022-11-03T09:55:18.976Z,16.88
2022-11-03T09:56:18.939Z,16.44
2022-11-03T09:57:18.862Z,16.45
2022-11-03T09:58:18.798Z,16.42
2022-11-03T09:59:18.749Z,16.44
2022-11-03T10:00:18.723Z,16.95
2022-11-03T10:01:18.785Z,17.24
2022-11-03T10:02:18.645Z,17.51
2022-11-03T10:03:18.526Z,17.99
2022-11-03T10:04:18.443Z,18.53
2022-11-03T10:05:18.391Z,17.74
2022-11-03T10:06:18.323Z,17.09
2022-11-03T10:07:18.274Z,17.42
2022-11-03T10:08:21.487Z,17.54
2022-11-03T10:09:18.155Z,17.39
2022-11-03T10:10:18.103Z,17.14
2022-11-03T10:11:18.032Z,17.22
2022-11-03T10:12:17.974Z,17.43
2022-11-03T10:13:17.918Z,16.63
2022-11-03T10:14:17.861Z,16.54
2022-11-03T10:15:17.803Z,16.17
2022-11-03T10:16:17.741Z,16.45
2022-11-03T10:17:17.700Z,16.81
2022-11-03T10:18:17.623Z,17.03
2022-11-03T10:19:17.576Z,17.12
2022-11-03T10:20:17.519Z,17.07
2022-11-03T10:21:17.463Z,16.90
2022-11-03T10:22:17.398Z,16.13
2022-11-03T10:23:17.334Z,16.03
2022-11-03T10:24:17.312Z,15.85
2022-11-03T10:25:17.211Z,15.30
2022-11-03T10:26:17.158Z,15.51
2022-11-03T10:27:17.087Z,15.60
2022-11-03T10:28:17.035Z,15.56
2022-11-03T10:29:17.042Z,15.05
2022-11-03T10:30:16.974Z,14.90
2022-11-03T10:31:16.871Z,14.85
2022-11-03T10:32:16.794Z,14.83
2022-11-03T10:33:16.753Z,14.90
2022-11-03T10:34:16.674Z,14.83
2022-11-03T10:35:16.624Z,15.03
2022-11-03T10:36:16.557Z,14.82
2022-11-03T10:37:16.500Z,14.86
2022-11-03T10:38:16.442Z,14.80
2022-11-03T10:39:16.444Z,14.80
2022-11-03T10:40:42.074Z,15.01
2022-11-03T10:41:16.255Z,15.23
2022-11-03T10:42:16.192Z,15.38
2022-11-03T10:43:16.168Z,15.04
2022-11-03T10:44:16.080Z,15.09
2022-11-03T10:45:16.045Z,14.93
2022-11-03T10:46:36.557Z,14.93
2022-11-03T10:47:15.898Z,14.86
2022-11-03T10:48:15.833Z,14.80
2022-11-03T10:49:15.787Z,14.90
2022-11-03T10:50:15.771Z,14.93
2022-11-03T10:51:15.658Z,14.75
2022-11-03T10:52:15.594Z,14.54
2022-11-03T10:53:15.576Z,14.45
2022-11-03T10:54:15.469Z,14.52
2022-11-03T10:55:19.187Z,14.60
2022-11-03T10:56:15.359Z,14.66
2022-11-03T10:57:15.292Z,14.71
2022-11-03T10:58:15.241Z,14.63
2022-11-03T10:59:15.167Z,14.56
2022-11-03T11:00:15.125Z,14.27
2022-11-03T11:01:15.153Z,14.17
2022-11-03T11:02:15.071Z,14.27
2022-11-03T11:03:17.958Z,14.20
2022-11-03T11:04:14.971Z,14.09
2022-11-03T11:05:14.822Z,14.24
2022-11-03T11:06:14.735Z,14.26
2022-11-03T11:07:14.690Z,14.23
2022-11-03T11:08:14.661Z,14.12
2022-11-03T11:09:14.554Z,14.06
2022-11-03T11:10:14.591Z,14.02
2022-11-03T11:11:14.435Z,14.02
2022-11-03T11:12:14.369Z,14.08
2022-11-03T11:13:14.303Z,14.13
2022-11-03T11:14:14.242Z,14.09
2022-11-03T11:15:14.185Z,14.09
2022-11-03T11:16:14.154Z,14.13
2022-11-03T11:17:14.058Z,14.13
2022-11-03T11:18:14.021Z,14.20
2022-11-03T11:19:13.954Z,14.08
2022-11-03T11:20:13.930Z,14.11
2022-11-03T11:21:13.808Z,14.23
2022-11-03T11:22:13.765Z,14.21
2022-11-03T11:23:13.686Z,14.26
2022-11-03T11:24:13.631Z,14.39
2022-11-03T11:25:13.560Z,14.35
2022-11-03T11:26:13.566Z,14.35
2022-11-03T11:27:13.436Z,14.30
2022-11-03T11:28:13.372Z,14.27
2022-11-03T11:29:13.316Z,14.13
2022-11-03T11:30:13.252Z,14.09
2022-11-03T11:31:13.187Z,14.20
2022-11-03T11:32:13.127Z,14.13
2022-11-03T11:33:13.065Z,14.13
2022-11-03T11:34:13.011Z,14.17
2022-11-03T11:35:12.937Z,14.11
2022-11-03T11:36:12.878Z,14.11
2022-11-03T11:37:12.814Z,14.19
2022-11-03T11:38:12.752Z,13.99
2022-11-03T11:39:12.720Z,14.04
2022-11-03T11:40:12.731Z,14.11
2022-11-03T11:41:12.565Z,14.08
2022-11-03T11:42:12.673Z,14.05
2022-11-03T11:43:12.436Z,14.05
2022-11-03T11:44:12.379Z,14.12
2022-11-03T11:45:12.320Z,14.05
2022-11-03T11:46:12.324Z,14.08
2022-11-03T11:47:12.187Z,14.06
2022-11-03T11:48:17.528Z,14.04
2022-11-03T11:49:12.075Z,13.81
2022-11-03T11:50:12.003Z,13.88
2022-11-03T11:51:11.941Z,13.76
2022-11-03T11:52:15.450Z,13.76
2022-11-03T11:53:11.814Z,13.81
2022-11-03T11:54:19.022Z,13.90
2022-11-03T11:55:11.688Z,13.90
2022-11-03T11:56:11.646Z,13.88
2022-11-03T11:57:11.566Z,13.73
2022-11-03T11:58:11.512Z,13.71
2022-11-03T11:59:11.441Z,13.75
2022-11-03T12:00:11.563Z,13.88
2022-11-03T12:01:11.348Z,13.83
2022-11-03T12:02:11.249Z,13.96
2022-11-03T12:03:11.592Z,13.88
2022-11-03T12:04:11.307Z,13.86
2022-11-03T12:05:11.068Z,13.93
2022-11-03T12:06:10.997Z,13.94
2022-11-03T12:07:10.945Z,13.83
2022-11-03T12:08:10.872Z,13.84
2022-11-03T12:09:10.814Z,13.90
2022-11-03T12:10:10.753Z,13.87
2022-11-03T12:11:10.740Z,13.86
2022-11-03T12:12:10.618Z,13.90
2022-11-03T12:13:10.564Z,13.83
2022-11-03T12:14:10.496Z,13.88
2022-11-03T12:15:10.432Z,13.90
2022-11-03T12:16:10.387Z,13.94
2022-11-03T12:17:10.306Z,13.88
2022-11-03T12:18:10.243Z,13.84
2022-11-03T12:19:10.179Z,13.87
2022-11-03T12:20:10.141Z,13.90
2022-11-03T12:21:10.056Z,13.91
2022-11-03T12:22:09.995Z,13.96
2022-11-03T12:23:09.935Z,14.02
2022-11-03T12:24:09.872Z,13.96
2022-11-03T12:25:09.805Z,13.96
2022-11-03T12:26:09.740Z,13.94
2022-11-03T12:27:09.696Z,13.94
2022-11-03T12:28:09.969Z,13.96
2022-11-03T12:29:09.564Z,13.94
2022-11-03T12:30:09.487Z,13.81
2022-11-03T12:31:09.426Z,13.93
2022-11-03T12:32:25.587Z,13.98
2022-11-03T12:33:09.652Z,13.94
2022-11-03T12:34:09.318Z,13.94
2022-11-03T12:35:09.258Z,13.99
2022-11-03T12:36:09.124Z,13.96
2022-11-03T12:37:09.118Z,13.99
2022-11-03T12:38:09.002Z,14.02
2022-11-03T12:39:08.940Z,14.04
2022-11-03T12:40:08.917Z,14.02
2022-11-03T12:41:08.802Z,13.94
2022-11-03T12:42:09.303Z,13.83
2022-11-03T12:43:08.951Z,13.83
2022-11-03T12:44:08.671Z,13.94
2022-11-03T12:45:08.559Z,13.87
2022-11-03T12:46:08.487Z,13.83
2022-11-03T12:47:08.424Z,13.91
2022-11-03T12:48:08.360Z,13.98
2022-11-03T12:49:08.301Z,14.02
2022-11-03T12:50:08.234Z,13.93
2022-11-03T12:51:08.167Z,13.96
2022-11-03T12:52:08.599Z,14.01
2022-11-03T12:53:08.481Z,13.99
2022-11-03T12:54:07.976Z,14.02
2022-11-03T12:55:07.917Z,14.06
2022-11-03T12:56:07.918Z,13.99
2022-11-03T12:57:07.825Z,13.94
2022-11-03T12:58:08.057Z,14.01
2022-11-03T12:59:07.675Z,14.01
2022-11-03T13:00:07.631Z,13.91
2022-11-03T13:01:07.642Z,13.99
2022-11-03T13:02:07.631Z,14.02
2022-11-03T13:03:07.563Z,14.01
2022-11-03T13:04:07.343Z,14.04
2022-11-03T13:05:07.292Z,14.08
2022-11-03T13:06:07.226Z,13.94
2022-11-03T13:07:07.156Z,13.99
2022-11-03T13:08:07.201Z,13.99
2022-11-03T13:09:07.039Z,14.06
2022-11-03T13:10:06.963Z,14.06
2022-11-03T13:11:06.922Z,14.05